createdAt,value
2022-11-10T00:00:46.334Z,1013.70
2022-11-10T00:01:46.332Z,1013.72
2022-11-10T00:02:46.331Z,1013.70
2022-11-10T00:03:46.391Z,1013.77
2022-11-10T00:04:46.287Z,1013.73
2022-11-10T00:05:46.297Z,1013.77
2022-11-10T00:06:46.305Z,1013.77
2022-11-10T00:07:46.276Z,1013.78
2022-11-10T00:08:46.252Z,1013.76
2022-11-10T00:09:46.316Z,1013.79
2022-11-10T00:10:46.242Z,1013.78
2022-11-10T00:11:46.237Z,1013.75
2022-11-10T00:12:46.216Z,1013.78
2022-11-10T00:13:46.213Z,1013.76
2022-11-10T00:14:46.173Z,1013.75
2022-11-10T00:15:46.154Z,1013.69
2022-11-10T00:16:46.220Z,1013.72
2022-11-10T00:17:46.272Z,1013.71
2022-11-10T00:18:46.144Z,1013.76
2022-11-10T00:19:46.136Z,1013.74
2022-11-10T00:20:46.107Z,1013.78
2022-11-10T00:21:46.101Z,1013.82
2022-11-10T00:22:47.055Z,1013.83
2022-11-10T00:23:46.096Z,1013.82
2022-11-10T00:24:46.062Z,1013.84
2022-11-10T00:25:46.997Z,1013.83
2022-11-10T00:26:46.070Z,1013.82
2022-11-10T00:27:46.981Z,1013.82
2022-11-10T00:28:47.008Z,1013.89
2022-11-10T00:29:46.029Z,1013.92
2022-11-10T00:30:47.000Z,1013.86
2022-11-10T00:31:45.978Z,1013.89
2022-11-10T00:32:45.978Z,1013.91
2022-11-10T00:33:45.964Z,1013.94
2022-11-10T00:34:45.948Z,1013.90
2022-11-10T00:35:45.978Z,1013.97
2022-11-10T00:36:46.010Z,1013.97
2022-11-10T00:37:45.913Z,1013.92
2022-11-10T00:38:45.900Z,1013.92
2022-11-10T00:39:45.890Z,1013.97
2022-11-10T00:40:45.919Z,1013.97
2022-11-10T00:41:45.902Z,1014.01
2022-11-10T00:42:45.850Z,1014.01
2022-11-10T00:43:45.849Z,1014.03
2022-11-10T00:44:45.858Z,1014.00
2022-11-10T00:45:45.834Z,1014.03
2022-11-10T00:46:45.827Z,1014.05
2022-11-10T00:47:45.861Z,1014.05
2022-11-10T00:48:45.803Z,1014.10
2022-11-10T00:49:45.803Z,1014.11
2022-11-10T00:50:45.792Z,1014.09
2022-11-10T00:51:45.801Z,1014.12
2022-11-10T00:52:46.015Z,1014.13
2022-11-10T00:53:45.735Z,1014.11
2022-11-10T00:54:45.760Z,1014.08
2022-11-10T00:55:45.714Z,1014.03
2022-11-10T00:56:45.740Z,1014.03
2022-11-10T00:57:45.695Z,1014.00
2022-11-10T00:58:45.745Z,1014.07
2022-11-10T00:59:45.708Z,1014.05
2022-11-10T01:00:45.692Z,1014.12
2022-11-10T01:01:45.676Z,1014.10
2022-11-10T01:02:45.684Z,1014.16
2022-11-10T01:03:45.648Z,1014.10
2022-11-10T01:04:45.646Z,1014.09
2022-11-10T01:05:45.613Z,1014.10
2022-11-10T01:06:45.613Z,1014.15
2022-11-10T01:07:45.609Z,1014.15
2022-11-10T01:08:45.598Z,1014.25
2022-11-10T01:09:45.559Z,1014.24
2022-11-10T01:10:45.577Z,1014.23
2022-11-10T01:11:45.530Z,1014.21
2022-11-10T01:12:45.551Z,1014.20
2022-11-10T01:13:45.513Z,1014.23
2022-11-10T01:14:45.519Z,1014.27
2022-11-10T01:15:45.489Z,1014.22
2022-11-10T01:16:45.480Z,1014.21
2022-11-10T01:17:45.481Z,1014.30
2022-11-10T01:18:45.474Z,1014.22
2022-11-10T01:19:45.479Z,1014.26
2022-11-10T01:20:45.448Z,1014.28
2022-11-10T01:21:45.421Z,1014.32
2022-11-10T01:22:45.423Z,1014.28
2022-11-10T01:23:45.426Z,1014.32
2022-11-10T01:24:45.418Z,1014.38
2022-11-10T01:25:45.381Z,1014.37
2022-11-10T01:26:45.361Z,1014.36
2022-11-10T01:27:45.382Z,1014.36
2022-11-10T01:28:45.350Z,1014.47
2022-11-10T01:29:45.359Z,1014.37
2022-11-10T01:30:45.318Z,1014.46
2022-11-10T01:31:45.334Z,1014.45
2022-11-10T01:32:45.305Z,1014.48
2022-11-10T01:33:45.296Z,1014.40
2022-11-10T01:34:45.364Z,1014.43
2022-11-10T01:35:45.293Z,1014.45
2022-11-10T01:36:45.319Z,1014.42
2022-11-10T01:37:45.253Z,1014.45
2022-11-10T01:38:45.264Z,1014.40
2022-11-10T01:39:45.233Z,1014.43
2022-11-10T01:40:45.276Z,1014.50
2022-11-10T01:41:45.195Z,1014.52
2022-11-10T01:42:45.215Z,1014.54
2022-11-10T01:43:45.198Z,1014.53
2022-11-10T01:44:45.182Z,1014.53
2022-11-10T01:45:45.158Z,1014.62
2022-11-10T01:46:45.151Z,1014.57
2022-11-10T01:47:45.170Z,1014.56
2022-11-10T01:48:45.121Z,1014.56
2022-11-10T01:49:45.128Z,1014.64
2022-11-10T01:50:45.098Z,1014.61
2022-11-10T01:51:45.089Z,1014.64
2022-11-10T01:52:45.078Z,1014.71
2022-11-10T01:53:45.104Z,1014.66
2022-11-10T01:54:45.057Z,1014.70
2022-11-10T01:55:45.055Z,1014.70
2022-11-10T01:56:45.049Z,1014.68
2022-11-10T01:57:45.018Z,1014.66
2022-11-10T01:58:45.021Z,1014.65
2022-11-10T01:59:45.043Z,1014.66
2022-11-10T02:00:45.081Z,1014.68
2022-11-10T02:01:45.046Z,1014.73
2022-11-10T02:02:44.972Z,1014.70
2022-11-10T02:03:44.963Z,1014.72
2022-11-10T02:04:44.951Z,1014.70
2022-11-10T02:05:44.971Z,1014.72
2022-11-10T02:06:44.959Z,1014.74
2022-11-10T02:07:44.907Z,1014.76
2022-11-10T02:08:44.902Z,1014.76
2022-11-10T02:09:44.896Z,1014.80
2022-11-10T02:10:44.902Z,1014.81
2022-11-10T02:11:44.893Z,1014.82
2022-11-10T02:12:44.910Z,1014.79
2022-11-10T02:13:44.842Z,1014.84
2022-11-10T02:14:44.834Z,1014.85
2022-11-10T02:15:44.818Z,1014.85
2022-11-10T02:16:44.806Z,1014.88
2022-11-10T02:17:44.824Z,1014.91
2022-11-10T02:18:44.800Z,1014.97
2022-11-10T02:19:44.784Z,1015.05
2022-11-10T02:20:44.763Z,1015.01
2022-11-10T02:21:44.755Z,1014.99
2022-11-10T02:22:44.946Z,1014.97
2022-11-10T02:23:44.746Z,1014.97
2022-11-10T02:24:44.727Z,1015.01
2022-11-10T02:25:44.736Z,1015.04
2022-11-10T02:26:44.739Z,1015.02
2022-11-10T02:27:44.700Z,1014.94
2022-11-10T02:28:44.712Z,1014.87
2022-11-10T02:29:44.686Z,1014.91
2022-11-10T02:30:44.660Z,1014.93
2022-11-10T02:31:44.662Z,1014.95
2022-11-10T02:32:44.647Z,1014.98
2022-11-10T02:33:44.607Z,1014.96
2022-11-10T02:34:45.553Z,1014.90
2022-11-10T02:35:44.610Z,1014.95
2022-11-10T02:36:44.613Z,1014.95
2022-11-10T02:37:44.568Z,1014.96
2022-11-10T02:38:44.561Z,1015.06
2022-11-10T02:39:44.569Z,1014.93
2022-11-10T02:40:44.602Z,1014.92
2022-11-10T02:41:44.541Z,1014.92
2022-11-10T02:42:44.510Z,1015.01
2022-11-10T02:43:44.505Z,1014.91
2022-11-10T02:44:44.506Z,1014.97
2022-11-10T02:45:44.512Z,1014.96
2022-11-10T02:46:44.471Z,1014.97
2022-11-10T02:47:44.452Z,1014.95
2022-11-10T02:48:44.441Z,1015.00
2022-11-10T02:49:44.435Z,1014.97
2022-11-10T02:50:44.413Z,1015.00
2022-11-10T02:51:44.423Z,1015.03
2022-11-10T02:52:44.402Z,1015.02
2022-11-10T02:53:44.395Z,1015.01
2022-11-10T02:54:44.404Z,1015.05
2022-11-10T02:55:44.375Z,1015.11
2022-11-10T02:56:44.382Z,1015.10
2022-11-10T02:57:44.347Z,1015.18
2022-11-10T02:58:44.369Z,1015.19
2022-11-10T02:59:44.345Z,1015.23
2022-11-10T03:00:44.314Z,1015.27
2022-11-10T03:01:44.394Z,1015.23
2022-11-10T03:02:44.348Z,1015.26
2022-11-10T03:03:44.279Z,1015.22
2022-11-10T03:04:45.222Z,1015.27
2022-11-10T03:05:44.265Z,1015.24
2022-11-10T03:06:44.280Z,1015.25
2022-11-10T03:07:44.234Z,1015.26
2022-11-10T03:08:44.240Z,1015.31
2022-11-10T03:09:44.217Z,1015.30
2022-11-10T03:10:44.197Z,1015.28
2022-11-10T03:11:44.242Z,1015.28
2022-11-10T03:12:44.184Z,1015.30
2022-11-10T03:14:00.213Z,1015.34
2022-11-10T03:14:45.147Z,1015.22
2022-11-10T03:15:44.157Z,1015.17
2022-11-10T03:16:44.128Z,1015.23
2022-11-10T03:17:44.148Z,1015.22
2022-11-10T03:18:44.108Z,1015.23
2022-11-10T03:19:44.099Z,1015.24
2022-11-10T03:20:44.119Z,1015.20
2022-11-10T03:21:44.113Z,1015.18
2022-11-10T03:22:44.066Z,1015.22
2022-11-10T03:23:44.055Z,1015.24
2022-11-10T03:24:44.100Z,1015.24
2022-11-10T03:25:44.054Z,1015.30
2022-11-10T03:26:44.025Z,1015.34
2022-11-10T03:27:44.001Z,1015.33
2022-11-10T03:28:43.981Z,1015.27
2022-11-10T03:29:43.988Z,1015.36
2022-11-10T03:30:43.970Z,1015.31
2022-11-10T03:31:44.956Z,1015.36
2022-11-10T03:32:43.943Z,1015.27
2022-11-10T03:33:43.937Z,1015.28
2022-11-10T03:34:43.924Z,1015.25
2022-11-10T03:35:43.932Z,1015.23
2022-11-10T03:36:43.915Z,1015.30
2022-11-10T03:37:43.951Z,1015.34
2022-11-10T03:38:43.893Z,1015.39
2022-11-10T03:39:43.895Z,1015.47
2022-11-10T03:41:17.070Z,1015.46
2022-11-10T03:41:44.853Z,1015.48
2022-11-10T03:42:43.825Z,1015.53
2022-11-10T03:43:43.849Z,1015.62
2022-11-10T03:44:43.836Z,1015.65
2022-11-10T03:45:43.816Z,1015.67
2022-11-10T03:46:43.886Z,1015.71
2022-11-10T03:47:43.805Z,1015.71
2022-11-10T03:48:47.399Z,1015.73
2022-11-10T03:49:44.766Z,1015.79
2022-11-10T03:50:43.763Z,1015.79
2022-11-10T03:51:43.730Z,1015.85
2022-11-10T03:52:43.726Z,1015.82
2022-11-10T03:53:43.740Z,1015.84
2022-11-10T03:54:43.717Z,1015.86
2022-11-10T03:55:43.730Z,1015.85
2022-11-10T03:56:43.680Z,1015.86
2022-11-10T03:57:43.678Z,1015.87
2022-11-10T03:58:43.680Z,1015.86
2022-11-10T03:59:43.682Z,1015.80
2022-11-10T04:00:43.629Z,1015.83
2022-11-10T04:01:43.698Z,1015.84
2022-11-10T04:02:43.613Z,1015.86
2022-11-10T04:03:46.282Z,1015.91
2022-11-10T04:04:45.551Z,1015.91
2022-11-10T04:05:43.582Z,1015.90
2022-11-10T04:06:43.599Z,1015.91
2022-11-10T04:07:43.551Z,1015.91
2022-11-10T04:08:43.533Z,1015.94
2022-11-10T04:09:43.549Z,1015.98
2022-11-10T04:10:43.522Z,1016.00
2022-11-10T04:11:43.516Z,1016.02
2022-11-10T04:12:43.509Z,1016.03
2022-11-10T04:13:43.515Z,1016.07
2022-11-10T04:14:43.481Z,1016.15
2022-11-10T04:15:43.483Z,1016.14
2022-11-10T04:16:43.460Z,1016.17
2022-11-10T04:17:43.471Z,1016.18
2022-11-10T04:18:43.437Z,1016.27
2022-11-10T04:19:43.449Z,1016.23
2022-11-10T04:20:43.417Z,1016.27
2022-11-10T04:21:44.899Z,1016.24
2022-11-10T04:22:43.455Z,1016.24
2022-11-10T04:23:43.393Z,1016.30
2022-11-10T04:24:43.364Z,1016.26
2022-11-10T04:25:43.384Z,1016.33
2022-11-10T04:26:43.334Z,1016.37
2022-11-10T04:27:43.325Z,1016.38
2022-11-10T04:28:43.363Z,1016.31
2022-11-10T04:29:43.301Z,1016.34
2022-11-10T04:30:43.289Z,1016.33
2022-11-10T04:31:43.297Z,1016.30
2022-11-10T04:32:43.285Z,1016.34
2022-11-10T04:33:43.306Z,1016.38
2022-11-10T04:34:43.230Z,1016.33
2022-11-10T04:35:43.266Z,1016.38
2022-11-10T04:36:43.217Z,1016.36
2022-11-10T04:37:43.208Z,1016.29
2022-11-10T04:38:43.210Z,1016.38
2022-11-10T04:39:43.194Z,1016.38
2022-11-10T04:40:43.168Z,1016.38
2022-11-10T04:41:43.187Z,1016.35
2022-11-10T04:42:43.149Z,1016.44
2022-11-10T04:43:43.148Z,1016.43
2022-11-10T04:44:43.148Z,1016.48
2022-11-10T04:45:43.123Z,1016.49
2022-11-10T04:46:43.101Z,1016.58
2022-11-10T04:47:43.091Z,1016.57
2022-11-10T04:48:43.101Z,1016.65
2022-11-10T04:49:43.084Z,1016.69
2022-11-10T04:50:43.077Z,1016.66
2022-11-10T04:51:43.076Z,1016.63
2022-11-10T04:52:43.038Z,1016.67
2022-11-10T04:53:44.040Z,1016.70
2022-11-10T04:54:43.014Z,1016.70
2022-11-10T04:55:43.012Z,1016.73
2022-11-10T04:56:42.993Z,1016.65
2022-11-10T04:57:42.991Z,1016.67
2022-11-10T04:58:42.971Z,1016.73
2022-11-10T04:59:43.012Z,1016.72
2022-11-10T05:00:43.024Z,1016.76
2022-11-10T05:01:42.970Z,1016.81
2022-11-10T05:02:42.954Z,1016.76
2022-11-10T05:03:42.918Z,1016.77
2022-11-10T05:04:42.915Z,1016.77
2022-11-10T05:05:42.941Z,1016.81
2022-11-10T05:06:42.934Z,1016.81
2022-11-10T05:07:42.908Z,1016.80
2022-11-10T05:08:42.861Z,1016.83
2022-11-10T05:09:42.851Z,1016.87
2022-11-10T05:10:42.866Z,1016.82
2022-11-10T05:11:42.827Z,1016.95
2022-11-10T05:12:42.838Z,1016.96
2022-11-10T05:13:42.801Z,1016.93
2022-11-10T05:14:42.799Z,1016.98
2022-11-10T05:15:42.822Z,1017.01
2022-11-10T05:16:42.777Z,1017.01
2022-11-10T05:17:42.767Z,1017.06
2022-11-10T05:18:42.760Z,1017.05
2022-11-10T05:19:42.744Z,1017.11
2022-11-10T05:20:42.750Z,1017.06
2022-11-10T05:21:42.759Z,1017.11
2022-11-10T05:22:47.946Z,1017.08
2022-11-10T05:23:43.700Z,1017.08
2022-11-10T05:24:42.694Z,1017.10
2022-11-10T05:25:42.663Z,1017.10
2022-11-10T05:26:43.609Z,1017.09
2022-11-10T05:27:42.840Z,1017.16
2022-11-10T05:28:42.641Z,1017.17
2022-11-10T05:29:42.631Z,1017.16
2022-11-10T05:30:42.620Z,1017.14
2022-11-10T05:31:42.604Z,1017.19
2022-11-10T05:32:42.643Z,1017.17
2022-11-10T05:33:42.633Z,1017.17
2022-11-10T05:34:42.571Z,1017.20
2022-11-10T05:35:42.574Z,1017.18
2022-11-10T05:36:42.561Z,1017.18
2022-11-10T05:37:42.546Z,1017.25
2022-11-10T05:38:43.854Z,1017.20
2022-11-10T05:39:42.551Z,1017.25
2022-11-10T05:40:42.518Z,1017.23
2022-11-10T05:41:42.498Z,1017.27
2022-11-10T05:42:42.487Z,1017.28
2022-11-10T05:43:42.494Z,1017.30
2022-11-10T05:44:42.492Z,1017.28
2022-11-10T05:45:42.455Z,1017.27
2022-11-10T05:46:42.469Z,1017.28
2022-11-10T05:47:42.434Z,1017.28
2022-11-10T05:48:43.387Z,1017.29
2022-11-10T05:49:42.446Z,1017.26
2022-11-10T05:50:42.392Z,1017.37
2022-11-10T05:51:43.343Z,1017.34
2022-11-10T05:52:47.596Z,1017.32
2022-11-10T05:53:43.355Z,1017.38
2022-11-10T05:54:42.337Z,1017.39
2022-11-10T05:55:42.356Z,1017.38
2022-11-10T05:56:42.320Z,1017.47
2022-11-10T05:57:42.342Z,1017.38
2022-11-10T05:58:42.300Z,1017.46
2022-11-10T05:59:42.291Z,1017.43
2022-11-10T06:00:42.309Z,1017.43
2022-11-10T06:01:42.266Z,1017.43
2022-11-10T06:02:42.252Z,1017.41
2022-11-10T06:03:42.273Z,1017.43
2022-11-10T06:04:42.255Z,1017.51
2022-11-10T06:05:42.229Z,1017.41
2022-11-10T06:06:42.285Z,1017.43
2022-11-10T06:07:42.228Z,1017.42
2022-11-10T06:08:42.194Z,1017.42
2022-11-10T06:09:42.183Z,1017.41
2022-11-10T06:10:42.179Z,1017.47
2022-11-10T06:11:42.181Z,1017.41
2022-11-10T06:12:42.169Z,1017.52
2022-11-10T06:13:42.156Z,1017.51
2022-11-10T06:14:42.153Z,1017.49
2022-11-10T06:15:47.562Z,1017.51
2022-11-10T06:16:43.100Z,1017.55
2022-11-10T06:17:42.111Z,1017.53
2022-11-10T06:18:42.093Z,1017.60
2022-11-10T06:19:42.074Z,1017.63
2022-11-10T06:20:42.062Z,1017.61
2022-11-10T06:21:42.033Z,1017.66
2022-11-10T06:22:42.048Z,1017.64
2022-11-10T06:23:42.065Z,1017.73
2022-11-10T06:24:42.005Z,1017.65
2022-11-10T06:25:41.991Z,1017.71
2022-11-10T06:26:42.035Z,1017.66
2022-11-10T06:27:41.963Z,1017.71
2022-11-10T06:28:41.976Z,1017.65
2022-11-10T06:29:41.953Z,1017.68
2022-11-10T06:30:41.958Z,1017.72
2022-11-10T06:31:41.938Z,1017.73
2022-11-10T06:32:41.963Z,1017.73
2022-11-10T06:33:41.919Z,1017.80
2022-11-10T06:34:41.905Z,1017.84
2022-11-10T06:35:41.894Z,1017.82
2022-11-10T06:36:41.901Z,1017.88
2022-11-10T06:37:41.881Z,1017.89
2022-11-10T06:38:41.854Z,1017.89
2022-11-10T06:39:41.846Z,1017.96
2022-11-10T06:40:41.832Z,1017.93
2022-11-10T06:41:41.827Z,1017.92
2022-11-10T06:42:42.786Z,1018.00
2022-11-10T06:43:41.816Z,1018.05
2022-11-10T06:44:41.782Z,1018.03
2022-11-10T06:45:41.765Z,1018.09
2022-11-10T06:46:42.523Z,1018.11
2022-11-10T06:47:41.772Z,1018.12
2022-11-10T06:48:41.740Z,1018.14
2022-11-10T06:49:41.912Z,1018.11
2022-11-10T06:50:41.708Z,1018.13
2022-11-10T06:51:41.761Z,1018.20
2022-11-10T06:52:41.733Z,1018.20
2022-11-10T06:53:41.677Z,1018.20
2022-11-10T06:54:41.896Z,1018.20
2022-11-10T06:55:41.654Z,1018.21
2022-11-10T06:56:41.790Z,1018.28
2022-11-10T06:57:41.645Z,1018.27
2022-11-10T06:58:41.655Z,1018.19
2022-11-10T06:59:41.845Z,1018.26
2022-11-10T07:00:41.656Z,1018.34
2022-11-10T07:01:42.613Z,1018.32
2022-11-10T07:02:41.894Z,1018.36
2022-11-10T07:04:05.215Z,1018.34
2022-11-10T07:04:42.636Z,1018.38
2022-11-10T07:05:41.549Z,1018.44
2022-11-10T07:06:41.571Z,1018.49
2022-11-10T07:07:41.523Z,1018.43
2022-11-10T07:08:41.630Z,1018.48
2022-11-10T07:09:41.535Z,1018.48
2022-11-10T07:10:41.492Z,1018.48
2022-11-10T07:11:42.424Z,1018.57
2022-11-10T07:12:41.516Z,1018.56
2022-11-10T07:13:41.489Z,1018.58
2022-11-10T07:14:41.447Z,1018.61
2022-11-10T07:15:41.436Z,1018.67
2022-11-10T07:16:41.465Z,1018.63
2022-11-10T07:17:42.431Z,1018.66
2022-11-10T07:18:41.407Z,1018.66
2022-11-10T07:19:41.850Z,1018.69
2022-11-10T07:20:42.334Z,1018.70
2022-11-10T07:21:41.376Z,1018.75
2022-11-10T07:22:41.377Z,1018.76
2022-11-10T07:23:41.339Z,1018.81
2022-11-10T07:24:41.360Z,1018.86
2022-11-10T07:25:41.320Z,1018.83
2022-11-10T07:26:41.324Z,1018.86
2022-11-10T07:27:41.300Z,1018.89
2022-11-10T07:28:41.313Z,1018.92
2022-11-10T07:29:41.298Z,1018.88
2022-11-10T07:30:41.289Z,1018.91
2022-11-10T07:31:41.260Z,1018.94
2022-11-10T07:32:41.249Z,1018.97
2022-11-10T07:33:41.748Z,1018.99
2022-11-10T07:34:41.543Z,1018.96
2022-11-10T07:35:41.563Z,1018.99
2022-11-10T07:36:41.205Z,1018.99
2022-11-10T07:37:41.181Z,1018.97
2022-11-10T07:38:41.211Z,1018.96
2022-11-10T07:39:41.180Z,1019.00
2022-11-10T07:40:41.150Z,1018.99
2022-11-10T07:41:41.152Z,1018.97
2022-11-10T07:42:41.297Z,1018.98
2022-11-10T07:43:41.131Z,1018.95
2022-11-10T07:44:41.104Z,1018.96
2022-11-10T07:45:41.115Z,1019.01
2022-11-10T07:46:41.277Z,1019.04
2022-11-10T07:47:41.124Z,1019.05
2022-11-10T07:48:41.077Z,1019.09
2022-11-10T07:49:41.083Z,1019.10
2022-11-10T07:50:41.063Z,1019.06
2022-11-10T07:51:41.044Z,1019.13
2022-11-10T07:52:41.021Z,1019.16
2022-11-10T07:53:41.023Z,1019.17
2022-11-10T07:54:40.993Z,1019.23
2022-11-10T07:55:41.005Z,1019.25
2022-11-10T07:56:40.997Z,1019.23
2022-11-10T07:57:40.969Z,1019.31
2022-11-10T07:58:40.966Z,1019.36
2022-11-10T07:59:40.971Z,1019.32
2022-11-10T08:00:40.940Z,1019.40
2022-11-10T08:01:41.041Z,1019.41
2022-11-10T08:02:40.895Z,1019.38
2022-11-10T08:03:40.894Z,1019.51
2022-11-10T08:04:40.897Z,1019.50
2022-11-10T08:05:40.886Z,1019.47
2022-11-10T08:06:41.010Z,1019.44
2022-11-10T08:07:40.923Z,1019.45
2022-11-10T08:08:40.851Z,1019.39
2022-11-10T08:09:40.826Z,1019.50
2022-11-10T08:10:40.835Z,1019.46
2022-11-10T08:11:40.802Z,1019.44
2022-11-10T08:12:40.800Z,1019.53
2022-11-10T08:13:41.750Z,1019.51
2022-11-10T08:14:41.329Z,1019.53
2022-11-10T08:15:40.812Z,1019.61
2022-11-10T08:16:41.717Z,1019.55
2022-11-10T08:17:40.780Z,1019.58
2022-11-10T08:18:40.933Z,1019.62
2022-11-10T08:19:40.785Z,1019.63
2022-11-10T08:20:40.713Z,1019.59
2022-11-10T08:21:40.694Z,1019.59
2022-11-10T08:22:40.699Z,1019.57
2022-11-10T08:23:40.663Z,1019.67
2022-11-10T08:24:40.669Z,1019.69
2022-11-10T08:25:41.453Z,1019.70
2022-11-10T08:26:40.633Z,1019.67
2022-11-10T08:27:40.667Z,1019.65
2022-11-10T08:28:40.611Z,1019.69
2022-11-10T08:29:40.804Z,1019.71
2022-11-10T08:30:40.595Z,1019.69
2022-11-10T08:31:40.589Z,1019.78
2022-11-10T08:32:40.579Z,1019.75
2022-11-10T08:33:40.595Z,1019.74
2022-11-10T08:34:40.551Z,1019.76
2022-11-10T08:35:40.593Z,1019.76
2022-11-10T08:36:40.533Z,1019.70
2022-11-10T08:37:40.548Z,1019.69
2022-11-10T08:38:40.530Z,1019.72
2022-11-10T08:39:40.484Z,1019.78
2022-11-10T08:40:40.525Z,1019.79
2022-11-10T08:41:40.454Z,1019.79
2022-11-10T08:42:40.472Z,1019.79
2022-11-10T08:43:40.462Z,1019.86
2022-11-10T08:44:40.436Z,1019.86
2022-11-10T08:45:40.489Z,1019.87
2022-11-10T08:46:40.456Z,1019.88
2022-11-10T08:47:40.401Z,1019.89
2022-11-10T08:48:40.398Z,1019.94
2022-11-10T08:49:41.327Z,1019.96
2022-11-10T08:50:40.385Z,1019.90
2022-11-10T08:51:40.913Z,1019.93
2022-11-10T08:52:40.474Z,1019.94
2022-11-10T08:53:41.796Z,1019.89
2022-11-10T08:54:40.323Z,1019.89
2022-11-10T08:55:40.415Z,1019.93
2022-11-10T08:56:40.342Z,1019.98
2022-11-10T08:57:40.510Z,1019.99
2022-11-10T08:58:50.164Z,1019.98
2022-11-10T08:59:41.265Z,1019.94
2022-11-10T09:00:40.259Z,1019.98
2022-11-10T09:01:40.250Z,1019.96
2022-11-10T09:02:40.251Z,1020.02
2022-11-10T09:03:40.412Z,1019.95
2022-11-10T09:04:40.308Z,1019.95
2022-11-10T09:05:40.226Z,1019.87
2022-11-10T09:06:40.776Z,1019.95
2022-11-10T09:07:40.212Z,1020.00
2022-11-10T09:08:40.241Z,1019.99
2022-11-10T09:09:40.142Z,1020.00
2022-11-10T09:10:40.166Z,1019.96
2022-11-10T09:11:40.133Z,1019.93
2022-11-10T09:12:40.547Z,1019.92
2022-11-10T09:13:40.125Z,1019.91
2022-11-10T09:14:40.137Z,1019.98
2022-11-10T09:15:40.099Z,1019.91
2022-11-10T09:16:40.093Z,1019.94
2022-11-10T09:17:40.064Z,1019.91
2022-11-10T09:18:40.066Z,1019.92
2022-11-10T09:19:40.103Z,1020.02
2022-11-10T09:20:40.086Z,1020.01
2022-11-10T09:21:40.036Z,1019.98
2022-11-10T09:22:40.005Z,1020.01
2022-11-10T09:23:39.985Z,1020.03
2022-11-10T09:24:39.976Z,1019.99
2022-11-10T09:25:40.010Z,1020.01
2022-11-10T09:26:40.017Z,1019.98
2022-11-10T09:27:39.968Z,1019.91
2022-11-10T09:28:39.940Z,1019.92
2022-11-10T09:29:39.949Z,1020.04
2022-11-10T09:30:39.919Z,1020.06
2022-11-10T09:31:39.940Z,1020.04
2022-11-10T09:32:39.926Z,1020.14
2022-11-10T09:33:39.949Z,1020.13
2022-11-10T09:34:39.868Z,1020.19
2022-11-10T09:35:39.870Z,1020.18
2022-11-10T09:36:39.871Z,1020.15
2022-11-10T09:37:39.844Z,1020.16
2022-11-10T09:38:39.827Z,1020.17
2022-11-10T09:39:39.842Z,1020.23
2022-11-10T09:40:39.802Z,1020.19
2022-11-10T09:41:39.808Z,1020.23
2022-11-10T09:42:39.772Z,1020.28
2022-11-10T09:43:39.772Z,1020.25
2022-11-10T09:44:39.781Z,1020.25
2022-11-10T09:45:39.781Z,1020.28
2022-11-10T09:46:39.758Z,1020.25
2022-11-10T09:47:56.856Z,1020.25
2022-11-10T09:48:41.714Z,1020.27
2022-11-10T09:49:39.713Z,1020.31
2022-11-10T09:50:39.715Z,1020.30
2022-11-10T09:51:42.817Z,1020.32
2022-11-10T09:52:40.666Z,1020.37
2022-11-10T09:53:39.644Z,1020.36
2022-11-10T09:54:39.684Z,1020.39
2022-11-10T09:55:39.643Z,1020.37
2022-11-10T09:56:39.622Z,1020.41
2022-11-10T09:57:40.912Z,1020.38
2022-11-10T09:58:39.594Z,1020.45
2022-11-10T09:59:39.634Z,1020.48
2022-11-10T10:00:39.565Z,1020.48
2022-11-10T10:01:39.628Z,1020.52
2022-11-10T10:02:41.018Z,1020.54
2022-11-10T10:03:39.556Z,1020.58
2022-11-10T10:04:43.214Z,1020.52
2022-11-10T10:05:40.570Z,1020.47
2022-11-10T10:07:04.803Z,1020.56
2022-11-10T10:07:40.518Z,1020.58
2022-11-10T10:08:39.487Z,1020.55
2022-11-10T10:09:39.482Z,1020.58
2022-11-10T10:10:39.458Z,1020.59
2022-11-10T10:11:39.499Z,1020.55
2022-11-10T10:12:39.438Z,1020.55
2022-11-10T10:13:39.428Z,1020.60
2022-11-10T10:14:39.423Z,1020.49
2022-11-10T10:15:39.399Z,1020.49
2022-11-10T10:16:39.398Z,1020.60
2022-11-10T10:17:41.365Z,1020.51
2022-11-10T10:18:39.379Z,1020.45
2022-11-10T10:19:39.996Z,1020.56
2022-11-10T10:20:39.361Z,1020.57
2022-11-10T10:21:39.339Z,1020.57
2022-11-10T10:22:39.342Z,1020.60
2022-11-10T10:24:07.695Z,1020.61
2022-11-10T10:24:40.341Z,1020.56
2022-11-10T10:25:39.304Z,1020.63
2022-11-10T10:26:39.312Z,1020.54
2022-11-10T10:27:39.274Z,1020.56
2022-11-10T10:28:39.263Z,1020.53
2022-11-10T10:29:39.252Z,1020.52
2022-11-10T10:30:39.235Z,1020.51
2022-11-10T10:31:39.223Z,1020.54
2022-11-10T10:32:39.266Z,1020.50
2022-11-10T10:33:39.205Z,1020.50
2022-11-10T10:34:39.196Z,1020.49
2022-11-10T10:35:41.769Z,1020.50
2022-11-10T10:36:39.175Z,1020.45
2022-11-10T10:37:39.421Z,1020.50
2022-11-10T10:38:39.166Z,1020.46
2022-11-10T10:39:39.137Z,1020.50
2022-11-10T10:40:39.156Z,1020.44
2022-11-10T10:41:39.118Z,1020.46
2022-11-10T10:42:39.143Z,1020.45
2022-11-10T10:43:39.105Z,1020.60
2022-11-10T10:44:39.183Z,1020.51
2022-11-10T10:45:39.135Z,1020.51
2022-11-10T10:46:39.090Z,1020.49
2022-11-10T10:47:39.998Z,1020.48
2022-11-10T10:48:39.042Z,1020.46
2022-11-10T10:49:39.069Z,1020.53
2022-11-10T10:50:40.469Z,1020.46
2022-11-10T10:51:39.131Z,1020.48
2022-11-10T10:52:39.943Z,1020.49
2022-11-10T10:53:38.991Z,1020.46
2022-11-10T10:54:38.959Z,1020.42
2022-11-10T10:55:38.980Z,1020.43
2022-11-10T10:56:38.951Z,1020.43
2022-11-10T10:57:38.941Z,1020.49
2022-11-10T10:58:38.919Z,1020.48
2022-11-10T10:59:38.929Z,1020.54
2022-11-10T11:00:38.893Z,1020.56
2022-11-10T11:01:39.081Z,1020.57
2022-11-10T11:02:38.874Z,1020.55
2022-11-10T11:03:38.930Z,1020.55
2022-11-10T11:04:38.869Z,1020.60
2022-11-10T11:05:38.897Z,1020.62
2022-11-10T11:06:38.895Z,1020.72
2022-11-10T11:07:38.829Z,1020.74
2022-11-10T11:08:38.819Z,1020.68
2022-11-10T11:09:38.796Z,1020.71
2022-11-10T11:10:38.793Z,1020.72
2022-11-10T11:11:38.812Z,1020.81
2022-11-10T11:12:38.775Z,1020.72
2022-11-10T11:13:38.760Z,1020.81
2022-11-10T11:14:43.328Z,1020.88
2022-11-10T11:15:39.723Z,1020.91
2022-11-10T11:16:38.754Z,1020.87
2022-11-10T11:17:38.749Z,1020.84
2022-11-10T11:18:39.670Z,1020.86
2022-11-10T11:19:38.687Z,1020.89
2022-11-10T11:20:38.671Z,1020.93
2022-11-10T11:21:38.680Z,1020.94
2022-11-10T11:22:38.678Z,1020.96
2022-11-10T11:23:38.637Z,1020.86
2022-11-10T11:24:38.624Z,1020.88
2022-11-10T11:25:38.630Z,1020.90
2022-11-10T11:26:38.636Z,1020.94
2022-11-10T11:27:38.597Z,1020.89
2022-11-10T11:28:39.524Z,1020.91
2022-11-10T11:29:38.611Z,1020.94
2022-11-10T11:30:38.570Z,1020.91
2022-11-10T11:31:42.890Z,1020.96
2022-11-10T11:32:38.562Z,1020.89
2022-11-10T11:33:38.529Z,1020.89
2022-11-10T11:34:38.554Z,1020.86
2022-11-10T11:35:38.522Z,1020.96
2022-11-10T11:36:38.492Z,1020.96
2022-11-10T11:37:38.482Z,1021.00
2022-11-10T11:38:38.952Z,1020.99
2022-11-10T11:39:38.496Z,1021.04
2022-11-10T11:40:38.445Z,1021.08
2022-11-10T11:41:38.452Z,1021.01
2022-11-10T11:42:38.414Z,1020.96
2022-11-10T11:43:38.422Z,1021.04
2022-11-10T11:44:38.419Z,1021.04
2022-11-10T11:45:38.393Z,1021.00
2022-11-10T11:46:38.402Z,1021.05
2022-11-10T11:47:38.365Z,1021.11
2022-11-10T11:48:38.357Z,1021.12
2022-11-10T11:49:38.348Z,1021.14
2022-11-10T11:50:38.373Z,1021.15
2022-11-10T11:51:38.345Z,1021.16
2022-11-10T11:52:38.407Z,1021.11
2022-11-10T11:53:38.295Z,1021.14
2022-11-10T11:54:38.276Z,1021.15
2022-11-10T11:55:38.278Z,1021.13
2022-11-10T11:56:38.287Z,1021.06
2022-11-10T11:57:40.210Z,1021.13
2022-11-10T11:58:38.252Z,1021.11
2022-11-10T11:59:38.237Z,1021.11
2022-11-10T12:00:38.305Z,1021.13
2022-11-10T12:01:38.219Z,1021.12
2022-11-10T12:02:38.287Z,1021.16
2022-11-10T12:03:38.253Z,1021.12
2022-11-10T12:04:38.176Z,1021.11
2022-11-10T12:05:38.158Z,1021.15